Flight Track Log - Related Links

Times and Time Zones

All times are in EDT time to prevent confusion due to time zone crossing. See the AAL963 flight status page for this flight to view local times or setup timezone preferences in your user account.

Time Position Orientation Groundspeed Altitude Reporting Facility
EDT Latitude Longitude Course Direction KTS MPH feet Rate Location/Type
Sat 09:17:47 PM 32.9320 -97.0280 North 175 201 2,000  Level FlightAware ADS-B
Sat 09:18:17 PM 32.9580 -97.0220 11° North 206 237 2,200 764 Climbing FlightAware ADS-B
Sat 09:18:42 PM 32.9840 -97.0160 11° North 231 266 2,700 1,418 Climbing FlightAware ADS-B
Sat 09:19:12 PM 33.0160 -97.0070 13° North 240 276 3,500 1,745 Climbing FlightAware ADS-B
Sat 09:19:37 PM 33.0410 -96.9950 22° Northeast 250 288 4,300 1,867 Climbing FlightAware ADS-B
Sat 09:19:57 PM 33.0550 -96.9700 56° Northeast 270 311 4,900 1,714 Climbing FlightAware ADS-B
Sat 09:20:12 PM 33.0570 -96.9490 84° East 280 322 5,300 1,650 Climbing FlightAware ADS-B
Sat 09:20:37 PM 33.0470 -96.9110 107° East 294 338 6,000 1,745 Climbing FlightAware ADS-B
Sat 09:21:07 PM 33.0230 -96.8710 126° Southeast 300 345 6,900 1,636 Climbing FlightAware ADS-B
Sat 09:21:32 PM 33.0000 -96.8350 127° Southeast 314 361 7,500 1,855 Climbing FlightAware ADS-B
Sat 09:22:02 PM 32.9670 -96.8020 140° Southeast 317 365 8,600 1,855 Climbing FlightAware ADS-B
Sat 09:22:27 PM 32.9320 -96.7920 167° South 322 371 9,200 1,371 Climbing FlightAware ADS-B
Sat 09:23:12 PM 32.8640 -96.7940 181° South 337 388 10,200 1,341 Climbing FlightAware ADS-B
Sat 09:23:52 PM 32.7980 -96.7980 183° South 363 418 11,100 1,425 Climbing FlightAware ADS-B
Sat 09:24:32 PM 32.7280 -96.7990 181° South 381 438 12,100 1,765 Climbing FlightAware ADS-B
Sat 09:25:17 PM 32.6510 -96.8020 182° South 389 448 13,600 2,047 Climbing FlightAware ADS-B
Sat 09:25:57 PM 32.5770 -96.8050 182° South 396 456 15,000 2,118 Climbing FlightAware ADS-B
Sat 09:26:42 PM 32.4960 -96.8080 182° South 402 463 16,600 2,118 Climbing FlightAware ADS-B
Sat 09:27:22 PM 32.4170 -96.8110 182° South 409 471 18,000 1,906 Climbing FlightAware ADS-B
Sat 09:28:07 PM 32.3340 -96.8140 182° South 419 482 19,300 1,731 Climbing FlightAware ADS-B
Sat 09:28:14 PM 32.3159 -96.8141 180° South 422 486 19,500 2,118 Climbing FlightAware ADS-B
Sat 09:28:24 PM 32.2950 -96.8127 177° South 428 493 19,900 1,862 Climbing FlightAware ADS-B
Sat 09:29:12 PM 32.2010 -96.7838 165° South 441 507 21,300 1,725 Climbing FlightAware ADS-B
Sat 09:29:44 PM 32.1393 -96.7602 162° South 448 516 22,200 1,652 Climbing FlightAware ADS-B
Sat 09:30:21 PM 32.0643 -96.7314 162° South 453 521 23,200 1,588 Climbing FlightAware ADS-B
Sat 09:30:52 PM 32.0032 -96.7082 162° South 456 525 24,000 1,548 Climbing FlightAware ADS-B
Sat 09:31:23 PM 31.9395 -96.6841 162° South 461 531 24,800 1,355 Climbing FlightAware ADS-B
Sat 09:31:54 PM 31.8767 -96.6604 162° South 467 537 25,400 1,258 Climbing FlightAware ADS-B
Sat 09:32:25 PM 31.8136 -96.6348 161° South 473 544 26,100 1,279 Climbing FlightAware ADS-B
Sat 09:32:55 PM 31.7512 -96.6089 161° South 476 548 26,700 1,219 Climbing FlightAware ADS-B
Sat 09:33:29 PM 31.6804 -96.5797 161° South 479 551 27,400 1,031 Climbing FlightAware ADS-B
Sat 09:33:59 PM 31.6155 -96.5532 161° South 486 559 27,800 1,000 Climbing FlightAware ADS-B
Sat 09:34:29 PM 31.5514 -96.5272 161° South 490 564 28,400 1,065 Climbing FlightAware ADS-B
Sat 09:35:01 PM 31.4827 -96.4997 161° South 493 567 28,900 1,048 Climbing FlightAware ADS-B
Sat 09:35:32 PM 31.4165 -96.4752 162° South 491 565 29,500 1,180 Climbing FlightAware ADS-B
Sat 09:36:02 PM 31.3497 -96.4507 163° South 492 566 30,100 1,180 Climbing FlightAware ADS-B
Sat 09:36:33 PM 31.2838 -96.4263 162° South 493 567 30,700 1,034 Climbing FlightAware ADS-B
Sat 09:37:00 PM 31.2239 -96.4039 162° South 495 570 31,100 833 Climbing FlightAware ADS-B
Sat 09:37:09 PM 31.2052 -96.3953 159° South 501 577 31,200 800 Climbing FlightAware ADS-B
Sat 09:37:15 PM 31.1929 -96.3881 153° Southeast 506 582 31,300 1,059 Climbing FlightAware ADS-B
Sat 09:37:26 PM 31.1710 -96.3720 148° Southeast 512 589 31,500 947 Climbing FlightAware ADS-B
Sat 09:37:34 PM 31.1560 -96.3580 141° Southeast 516 594 31,600 900 Climbing FlightAware ADS-B
Sat 09:37:46 PM 31.1364 -96.3349 135° Southeast 523 602 31,800 632 Climbing FlightAware ADS-B
Sat 09:37:53 PM 31.1252 -96.3184 128° Southeast 527 606 31,800 486 Level FlightAware ADS-B
Sat 09:38:23 PM 31.0815 -96.2478 126° Southeast 533 613 32,100 689 Climbing FlightAware ADS-B
Sat 09:38:54 PM 31.0384 -96.1770 125° Southeast 535 616 32,500 787 Climbing FlightAware ADS-B
Sat 09:39:24 PM 30.9949 -96.1055 125° Southeast 538 619 32,900 700 Climbing FlightAware ADS-B
Sat 09:39:54 PM 30.9516 -96.0347 125° Southeast 540 621 33,200 689 Climbing FlightAware ADS-B
Sat 09:40:25 PM 30.9057 -95.9601 126° Southeast 541 623 33,600 968 Climbing FlightAware ADS-B
Sat 09:40:56 PM 30.8617 -95.8891 126° Southeast 537 618 34,200 984 Climbing FlightAware ADS-B
Sat 09:41:26 PM 30.8178 -95.8184 126° Southeast 535 616 34,600 778 Climbing FlightAware ADS-B
Sat 09:41:50 PM 30.7832 -95.7634 126° Southeast 534 615 34,900 436 Climbing FlightAware ADS-B
Sat 09:42:21 PM 30.7336 -95.6926 129° Southeast 537 618 35,000 97 Climbing FlightAware ADS-B
Sat 09:42:52 PM 30.6813 -95.6285 133° Southeast 533 613 35,000  Level FlightAware ADS-B
Sat 09:43:22 PM 30.6272 -95.5687 136° Southeast 531 611 35,000  Level FlightAware ADS-B
Sat 09:43:53 PM 30.5732 -95.5098 137° Southeast 531 611 35,000  Level FlightAware ADS-B
Sat 09:44:25 PM 30.5157 -95.4472 137° Southeast 531 611 35,000  Level FlightAware ADS-B
Sat 09:44:55 PM 30.4617 -95.3883 137° Southeast 531 611 35,000  Level FlightAware ADS-B
Sat 09:45:26 PM 30.4068 -95.3283 137° Southeast 530 610 35,000  Level FlightAware ADS-B
Sat 09:45:57 PM 30.3521 -95.2685 137° Southeast 527 606 35,000  Level FlightAware ADS-B
Sat 09:46:28 PM 30.2970 -95.2086 137° Southeast 528 608 35,000  Level FlightAware ADS-B
Sat 09:46:58 PM 30.2424 -95.1492 137° Southeast 528 608 35,000  Level FlightAware ADS-B
Sat 09:47:30 PM 30.1860 -95.0880 137° Southeast 528 608 35,000  Level FlightAware ADS-B
Sat 09:48:00 PM 30.1320 -95.0296 137° Southeast 528 608 35,000  Level FlightAware ADS-B
Sat 09:48:31 PM 30.0771 -94.9702 137° Southeast 527 606 35,000  Level FlightAware ADS-B
Sat 09:49:01 PM 30.0232 -94.9121 137° Southeast 526 605 35,000  Level FlightAware ADS-B
Sat 09:49:31 PM 29.9697 -94.8545 137° Southeast 525 604 35,000  Level FlightAware ADS-B
Sat 09:50:02 PM 29.9163 -94.7970 137° Southeast 525 604 35,000  Level FlightAware ADS-B
Sat 09:50:32 PM 29.8622 -94.7389 137° Southeast 524 603 35,000  Level FlightAware ADS-B
Sat 09:51:03 PM 29.8074 -94.6801 137° Southeast 524 603 35,000  Level FlightAware ADS-B
Sat 09:51:33 PM 29.7534 -94.6224 137° Southeast 525 604 35,000  Level FlightAware ADS-B
Sat 09:52:03 PM 29.6999 -94.5652 137° Southeast 526 605 35,000  Level FlightAware ADS-B
Sat 09:52:34 PM 29.6462 -94.5080 137° Southeast 526 605 35,000  Level FlightAware ADS-B
Sat 09:53:04 PM 29.5924 -94.4505 137° Southeast 527 606 35,000  Level FlightAware ADS-B
Sat 09:53:34 PM 29.5379 -94.3926 137° Southeast 527 606 35,000  Level FlightAware ADS-B
Sat 09:54:04 PM 29.4839 -94.3352 137° Southeast 527 606 35,000  Level FlightAware ADS-B
Sat 09:54:35 PM 29.4298 -94.2778 137° Southeast 527 606 35,000  Level FlightAware ADS-B
Sat 09:55:06 PM 29.3745 -94.2189 137° Southeast 529 609 35,000  Level FlightAware ADS-B
Sat 09:55:36 PM 29.3204 -94.1613 137° Southeast 529 609 35,000  Level FlightAware ADS-B
Sat 09:56:06 PM 29.2665 -94.1041 137° Southeast 527 606 35,000  Level FlightAware ADS-B
Sat 09:56:36 PM 29.2128 -94.0472 137° Southeast 527 606 35,000  Level FlightAware ADS-B
Sat 09:57:06 PM 29.1583 -93.9896 137° Southeast 529 609 35,000  Level FlightAware ADS-B
Sat 09:58:20 PM 29.0433 -93.8667 137° Southeast 527 606 35,000 -44 Level Houston Center
Sat 09:59:21 PM 28.9239 -93.7447 138° Southeast 522 601 34,900  Descending Houston Center
Sat 10:00:22 PM 28.8267 -93.6422 137° Southeast 527 606 35,000  Climbing Houston Center
Sat 10:01:23 PM 28.7072 -93.5147 137° Southeast 531 611 34,900  Descending Houston Center
Sat 10:02:24 PM 28.5986 -93.4019 138° Southeast 530 610 35,000 50 Climbing Houston Center
Sat 10:03:24 PM 28.5008 -93.3006 138° Southeast 531 611 35,000  Level Houston Center
Sat 10:04:25 PM 28.3822 -93.1769 137° Southeast 528 608 35,000  Level Houston Center
Sat 10:05:26 PM 28.2728 -93.0628 137° Southeast 534 615 35,000  Level Houston Center
Sat 10:11:50 PM 27.5488 -92.3252 137° Southeast 533 613 35,000 -14 Level FlightAware ADS-B
Sat 10:12:31 PM 27.4789 -92.2550 137° Southeast 531 611 34,900 -59 Descending Houston Center
Sat 10:13:32 PM 27.3686 -92.1442 138° Southeast 532 612 34,900 Level Houston Center
Sat 10:15:00 PM 27.2250 -91.9942 137° Southeast  Level FlightAware Approximate
Sat 10:22:00 PM 26.4681 -91.3814 143° Southeast  Level FlightAware Approximate
Sat 10:23:00 PM 26.3609 -91.2924 143° Southeast  Level FlightAware Approximate
Sat 10:24:00 PM 26.2521 -91.2060 145° Southeast  Level FlightAware Approximate
Sat 10:25:00 PM 26.1430 -91.1201 145° Southeast  Level FlightAware Approximate
Sat 10:26:00 PM 26.0338 -91.0344 145° Southeast  Level FlightAware Approximate
Sat 10:27:00 PM 25.9246 -90.9488 145° Southeast  Level FlightAware Approximate
Sat 10:28:00 PM 25.8153 -90.8634 145° Southeast  Level FlightAware Approximate
Sat 10:29:00 PM 25.7061 -90.7781 145° Southeast  Level FlightAware Approximate
Sat 10:30:00 PM 25.5967 -90.6930 145° Southeast  Level FlightAware Approximate
Sat 10:31:00 PM 25.4873 -90.6081 145° Southeast  Level FlightAware Approximate
Sat 10:32:00 PM 25.3778 -90.5233 145° Southeast  Level FlightAware Approximate
Sat 10:33:00 PM 25.2684 -90.4387 145° Southeast  Level FlightAware Approximate
Sat 10:34:00 PM 25.1588 -90.3542 145° Southeast  Level FlightAware Approximate
Sat 10:35:00 PM 25.0492 -90.2698 145° Southeast  Level FlightAware Approximate
Sat 10:36:00 PM 24.9396 -90.1857 145° Southeast  Level FlightAware Approximate
Sat 10:37:00 PM 24.8299 -90.1016 145° Southeast  Level FlightAware Approximate
Sat 10:38:00 PM 24.7201 -90.0177 145° Southeast  Level FlightAware Approximate
Sat 10:39:00 PM 24.6104 -89.9340 145° Southeast  Level FlightAware Approximate
Sat 10:40:00 PM 24.5006 -89.8505 145° Southeast  Level FlightAware Approximate
Sat 10:41:00 PM 24.4291 -89.7280 119° Southeast  Level FlightAware Approximate
Sat 10:42:00 PM 24.3632 -89.6004 120° Southeast  Level FlightAware Approximate
Sat 10:43:00 PM 24.2972 -89.4730 120° Southeast  Level FlightAware Approximate
Sat 10:44:00 PM 24.2312 -89.3458 120° Southeast  Level FlightAware Approximate
Sat 10:45:00 PM 24.1650 -89.2186 120° Southeast  Level FlightAware Approximate
Sat 10:46:00 PM 24.0987 -89.0916 120° Southeast  Level FlightAware Approximate
Sat 10:47:00 PM 24.0324 -88.9648 119° Southeast  Level FlightAware Approximate
Sat 10:48:00 PM 23.9675 -88.8370 119° Southeast  Level FlightAware Approximate
Sat 10:49:00 PM 23.9025 -88.7094 119° Southeast  Level FlightAware Approximate
Sat 10:50:00 PM 23.8375 -88.5819 119° Southeast  Level FlightAware Approximate
Sat 10:51:00 PM 23.7723 -88.4545 119° Southeast  Level FlightAware Approximate
Sat 10:52:00 PM 23.7071 -88.3273 119° Southeast  Level FlightAware Approximate
Sat 10:53:00 PM 23.6417 -88.2002 119° Southeast  Level FlightAware Approximate
Sat 10:54:00 PM 23.5762 -88.0732 119° Southeast  Level FlightAware Approximate
Sat 10:55:00 PM 23.5106 -87.9463 119° Southeast  Level FlightAware Approximate
Sat 10:56:00 PM 23.4449 -87.8196 119° Southeast  Level FlightAware Approximate
Sat 10:57:00 PM 23.3791 -87.6930 119° Southeast  Level FlightAware Approximate
Sat 10:58:00 PM 23.3132 -87.5665 120° Southeast  Level FlightAware Approximate
Sat 10:59:00 PM 23.2472 -87.4402 120° Southeast  Level FlightAware Approximate
Sat 11:00:00 PM 23.1812 -87.3139 120° Southeast  Level FlightAware Approximate
Sat 11:01:00 PM 23.1150 -87.1878 120° Southeast  Level FlightAware Approximate
Sat 11:02:00 PM 23.0487 -87.0619 120° Southeast  Level FlightAware Approximate
Sat 11:03:00 PM 22.9823 -86.9360 120° Southeast  Level FlightAware Approximate
Sat 11:04:00 PM 22.9158 -86.8103 120° Southeast  Level FlightAware Approximate
Sat 11:05:00 PM 22.8492 -86.6847 120° Southeast  Level FlightAware Approximate
Sat 11:06:00 PM 22.7825 -86.5592 120° Southeast  Level FlightAware Approximate
Sat 11:07:00 PM 22.7157 -86.4338 120° Southeast  Level FlightAware Approximate
Sat 11:08:00 PM 22.6488 -86.3086 120° Southeast  Level FlightAware Approximate
Sat 11:09:00 PM 22.5819 -86.1835 120° Southeast  Level FlightAware Approximate
Sat 11:10:00 PM 22.5148 -86.0585 120° Southeast  Level FlightAware Approximate
Sat 11:11:00 PM 22.4477 -85.9335 120° Southeast  Level FlightAware Approximate
Sat 11:12:00 PM 22.3806 -85.8087 120° Southeast  Level FlightAware Approximate
Sat 11:13:00 PM 22.3133 -85.6840 120° Southeast  Level FlightAware Approximate
Sat 11:14:00 PM 22.2460 -85.5593 121° Southeast  Level FlightAware Approximate
Sat 11:15:00 PM 22.1780 -85.4352 121° Southeast  Level FlightAware Approximate
Sat 11:16:00 PM 22.1100 -85.3112 121° Southeast  Level FlightAware Approximate
Sat 11:17:00 PM 22.0418 -85.1873 121° Southeast  Level FlightAware Approximate
Sat 11:18:00 PM 21.9736 -85.0636 121° Southeast  Level FlightAware Approximate
Sat 11:19:00 PM 21.9052 -84.9399 121° Southeast  Level FlightAware Approximate
Sat 11:20:00 PM 21.8368 -84.8164 121° Southeast  Level FlightAware Approximate
Sat 11:21:00 PM 21.7682 -84.6930 121° Southeast  Level FlightAware Approximate
Sat 11:22:00 PM 21.6996 -84.5697 121° Southeast  Level FlightAware Approximate
Sat 11:23:00 PM 21.6309 -84.4465 121° Southeast  Level FlightAware Approximate
Sat 11:24:00 PM 21.5621 -84.3234 121° Southeast  Level FlightAware Approximate
Sat 11:25:00 PM 21.4932 -84.2005 121° Southeast  Level FlightAware Approximate
Sat 11:26:00 PM 21.4242 -84.0777 121° Southeast  Level FlightAware Approximate
Sat 11:27:00 PM 21.3552 -83.9549 121° Southeast  Level FlightAware Approximate
Sat 11:28:00 PM 21.2860 -83.8324 121° Southeast  Level FlightAware Approximate
Sat 11:29:00 PM 21.2167 -83.7099 121° Southeast  Level FlightAware Approximate
Sat 11:30:00 PM 21.1474 -83.5875 121° Southeast  Level FlightAware Approximate
Sat 11:31:00 PM 21.0780 -83.4653 121° Southeast  Level FlightAware Approximate
Sat 11:32:00 PM 21.0085 -83.3431 121° Southeast  Level FlightAware Approximate
Sat 11:33:00 PM 20.9389 -83.2211 121° Southeast  Level FlightAware Approximate
Sat 11:34:00 PM 20.8692 -83.0992 121° Southeast  Level FlightAware Approximate
Sat 11:35:00 PM 20.7994 -82.9774 121° Southeast  Level FlightAware Approximate
Sat 11:36:00 PM 20.7295 -82.8557 122° Southeast  Level FlightAware Approximate
Sat 11:37:00 PM 20.6599 -82.7333 121° Southeast  Level FlightAware Approximate
Sat 11:38:00 PM 20.5903 -82.6110 121° Southeast  Level FlightAware Approximate
Sat 11:39:00 PM 20.5207 -82.4887 121° Southeast  Level FlightAware Approximate
Sat 11:40:00 PM 20.4509 -82.3666 121° Southeast  Level FlightAware Approximate
Sat 11:41:00 PM 20.3811 -82.2446 121° Southeast  Level FlightAware Approximate
Sat 11:42:00 PM 20.3111 -82.1227 121° Southeast  Level FlightAware Approximate
Sat 11:43:00 PM 20.2411 -82.0009 121° Southeast  Level FlightAware Approximate
Sat 11:44:00 PM 20.1710 -81.8792 122° Southeast  Level FlightAware Approximate
Sat 11:45:00 PM 20.1009 -81.7576 122° Southeast  Level FlightAware Approximate
Sat 11:46:00 PM 20.0306 -81.6361 122° Southeast  Level FlightAware Approximate
Sat 11:47:00 PM 19.9598 -81.5151 122° Southeast  Level FlightAware Approximate
Sat 11:48:00 PM 19.8887 -81.3943 122° Southeast  Level FlightAware Approximate
Sat 11:49:00 PM 19.8174 -81.2737 122° Southeast  Level FlightAware Approximate
Sat 11:50:00 PM 19.7461 -81.1532 122° Southeast  Level FlightAware Approximate
Sat 11:51:00 PM 19.6746 -81.0327 122° Southeast  Level FlightAware Approximate
Sat 11:52:00 PM 19.6031 -80.9124 122° Southeast  Level FlightAware Approximate
Sat 11:53:00 PM 19.5316 -80.7922 122° Southeast  Level FlightAware Approximate
Sat 11:54:00 PM 19.4599 -80.6721 122° Southeast  Level FlightAware Approximate
Sat 11:55:00 PM 19.3882 -80.5521 122° Southeast  Level FlightAware Approximate
Sat 11:56:00 PM 19.3163 -80.4322 122° Southeast  Level FlightAware Approximate
Sat 11:57:00 PM 19.2444 -80.3124 122° Southeast  Level FlightAware Approximate
Sat 11:58:00 PM 19.1725 -80.1927 122° Southeast  Level FlightAware Approximate
Sat 11:59:00 PM 19.1004 -80.0732 123° Southeast  Level FlightAware Approximate
Sun 12:00:00 AM 19.0283 -79.9537 123° Southeast  Level FlightAware Approximate
Sun 12:01:00 AM 18.9561 -79.8343 123° Southeast  Level FlightAware Approximate
Sun 12:02:00 AM 18.8838 -79.7150 123° Southeast  Level FlightAware Approximate
Sun 12:03:00 AM 18.8114 -79.5959 123° Southeast  Level FlightAware Approximate
Sun 12:04:00 AM 18.7390 -79.4768 123° Southeast  Level FlightAware Approximate
Sun 12:05:00 AM 18.6665 -79.3579 123° Southeast  Level FlightAware Approximate
Sun 12:06:00 AM 18.5939 -79.2390 123° Southeast  Level FlightAware Approximate
Sun 12:07:00 AM 18.5213 -79.1202 123° Southeast  Level FlightAware Approximate
Sun 12:08:00 AM 18.4485 -79.0016 123° Southeast  Level FlightAware Approximate
Sun 12:09:00 AM 18.3757 -78.8830 123° Southeast  Level FlightAware Approximate
Sun 12:10:00 AM 18.3029 -78.7646 123° Southeast  Level FlightAware Approximate
Sun 12:11:00 AM 18.2299 -78.6462 123° Southeast  Level FlightAware Approximate
Sun 12:12:00 AM 18.1569 -78.5279 123° Southeast  Level FlightAware Approximate
Sun 12:13:00 AM 18.0838 -78.4098 123° Southeast  Level FlightAware Approximate
Sun 12:14:00 AM 18.0106 -78.2917 123° Southeast  Level FlightAware Approximate
Sun 12:15:00 AM 17.9374 -78.1738 123° Southeast  Level FlightAware Approximate
Sun 12:16:00 AM 17.8641 -78.0559 123° Southeast  Level FlightAware Approximate
Sun 12:17:00 AM 17.7645 -77.9635 142° Southeast  Level FlightAware Approximate
Sun 12:18:00 AM 17.6587 -77.8772 142° Southeast  Level FlightAware Approximate
Sun 12:19:00 AM 17.5528 -77.7911 142° Southeast  Level FlightAware Approximate
Sun 12:20:00 AM 17.4469 -77.7050 142° Southeast  Level FlightAware Approximate
Sun 12:21:00 AM 17.3410 -77.6190 142° Southeast  Level FlightAware Approximate
Sun 12:22:00 AM 17.2350 -77.5331 142° Southeast  Level FlightAware Approximate
Sun 12:23:00 AM 17.1290 -77.4473 142° Southeast  Level FlightAware Approximate
Sun 12:24:00 AM 17.0230 -77.3617 142° Southeast  Level FlightAware Approximate
Sun 12:25:00 AM 16.9169 -77.2761 142° Southeast  Level FlightAware Approximate
Sun 12:26:00 AM 16.8108 -77.1906 142° Southeast  Level FlightAware Approximate
Sun 12:27:00 AM 16.7046 -77.1052 142° Southeast  Level FlightAware Approximate
Sun 12:28:00 AM 16.5984 -77.0199 142° Southeast  Level FlightAware Approximate
Sun 12:29:00 AM 16.4922 -76.9347 142° Southeast  Level FlightAware Approximate
Sun 12:30:00 AM 16.3860 -76.8496 142° Southeast  Level FlightAware Approximate
Sun 12:31:00 AM 16.2797 -76.7645 142° Southeast  Level FlightAware Approximate
Sun 12:32:00 AM 16.1734 -76.6796 143° Southeast  Level FlightAware Approximate
Sun 12:33:00 AM 16.0670 -76.5948 143° Southeast  Level FlightAware Approximate
Sun 12:34:00 AM 15.9606 -76.5100 143° Southeast  Level FlightAware Approximate
Sun 12:35:00 AM 15.8544 -76.4255 143° Southeast  Level FlightAware Approximate
Sun 12:36:00 AM 15.7481 -76.3411 143° Southeast  Level FlightAware Approximate
Sun 12:37:00 AM 15.6418 -76.2568 143° Southeast  Level FlightAware Approximate
Sun 12:38:00 AM 15.5355 -76.1726 143° Southeast  Level FlightAware Approximate
Sun 12:39:00 AM 15.4291 -76.0884 143° Southeast  Level FlightAware Approximate
Sun 12:40:00 AM 15.3227 -76.0043 143° Southeast  Level FlightAware Approximate
Sun 12:41:00 AM 15.2163 -75.9204 143° Southeast  Level FlightAware Approximate
Sun 12:42:00 AM 15.1099 -75.8365 143° Southeast  Level FlightAware Approximate
Sun 12:43:00 AM 15.0034 -75.7527 143° Southeast  Level FlightAware Approximate
Sun 12:44:00 AM 14.8969 -75.6689 143° Southeast  Level FlightAware Approximate
Sun 12:45:00 AM 14.7904 -75.5852 143° Southeast  Level FlightAware Approximate
Sun 12:46:00 AM 14.6838 -75.5016 143° Southeast  Level FlightAware Approximate
Sun 12:47:00 AM 14.5772 -75.4180 143° Southeast  Level FlightAware Approximate
Sun 12:48:00 AM 14.4706 -75.3346 143° Southeast  Level FlightAware Approximate
Sun 12:49:00 AM 14.3640 -75.2512 143° Southeast  Level FlightAware Approximate
Sun 12:50:00 AM 14.2573 -75.1679 143° Southeast  Level FlightAware Approximate
Sun 12:51:00 AM 14.1507 -75.0847 143° Southeast  Level FlightAware Approximate
Sun 12:52:00 AM 14.0439 -75.0016 143° Southeast  Level FlightAware Approximate
Sun 12:53:00 AM 13.9372 -74.9185 143° Southeast  Level FlightAware Approximate
Sun 12:54:00 AM 13.8304 -74.8356 143° Southeast  Level FlightAware Approximate
Sun 12:55:00 AM 13.7236 -74.7527 143° Southeast  Level FlightAware Approximate
Sun 12:56:00 AM 13.6168 -74.6699 143° Southeast  Level FlightAware Approximate
Sun 12:57:00 AM 13.5099 -74.5871 143° Southeast  Level FlightAware Approximate
Sun 12:58:00 AM 13.4030 -74.5044 143° Southeast  Level FlightAware Approximate
Sun 12:59:00 AM 13.2961 -74.4218 143° Southeast  Level FlightAware Approximate
Sun 01:00:00 AM 13.1892 -74.3393 143° Southeast  Level FlightAware Approximate
Sun 01:01:00 AM 13.0822 -74.2568 143° Southeast  Level FlightAware Approximate
Sun 01:02:00 AM 12.9754 -74.1746 143° Southeast  Level FlightAware Approximate
Sun 01:03:00 AM 12.8686 -74.0924 143° Southeast  Level FlightAware Approximate
Sun 01:04:00 AM 12.7617 -74.0103 143° Southeast  Level FlightAware Approximate
Sun 01:05:00 AM 12.6548 -73.9283 143° Southeast  Level FlightAware Approximate
Sun 01:06:00 AM 12.5479 -73.8463 143° Southeast  Level FlightAware Approximate
Sun 01:07:00 AM 12.4410 -73.7645 143° Southeast  Level FlightAware Approximate
Sun 01:08:00 AM 12.3340 -73.6826 143° Southeast  Level FlightAware Approximate
Sun 01:09:00 AM 12.2271 -73.6009 143° Southeast  Level FlightAware Approximate
Sun 01:10:00 AM 12.1201 -73.5192 143° Southeast  Level FlightAware Approximate
Sun 01:11:00 AM 12.0130 -73.4376 143° Southeast  Level FlightAware Approximate
Sun 01:12:00 AM 11.9060 -73.3560 143° Southeast  Level FlightAware Approximate
Sun 01:13:00 AM 11.7989 -73.2745 143° Southeast  Level FlightAware Approximate
Sun 01:14:00 AM 11.6918 -73.1931 143° Southeast  Level FlightAware Approximate
Sun 01:15:00 AM 11.5847 -73.1117 143° Southeast  Level FlightAware Approximate
Sun 01:16:00 AM 11.4775 -73.0304 143° Southeast  Level FlightAware Approximate
Sun 01:17:00 AM 11.3704 -72.9492 143° Southeast  Level FlightAware Approximate
Sun 01:18:00 AM 11.2632 -72.8680 143° Southeast  Level FlightAware Approximate
Sun 01:19:00 AM 11.1560 -72.7868 143° Southeast  Level FlightAware Approximate
Sun 01:20:00 AM 11.0487 -72.7058 143° Southeast  Level FlightAware Approximate
Sun 01:21:00 AM 10.9415 -72.6248 143° Southeast  Level FlightAware Approximate
Sun 01:22:00 AM 10.8342 -72.5438 143° Southeast  Level FlightAware Approximate
Sun 01:23:00 AM 10.7269 -72.4630 143° Southeast  Level FlightAware Approximate
Sun 01:24:00 AM 10.6196 -72.3821 143° Southeast  Level FlightAware Approximate
Sun 01:25:00 AM 10.5123 -72.3014 143° Southeast  Level FlightAware Approximate
Sun 01:26:00 AM 10.4049 -72.2206 144° Southeast  Level FlightAware Approximate
Sun 01:27:00 AM 10.2975 -72.1400 144° Southeast  Level FlightAware Approximate
Sun 01:28:00 AM 10.1901 -72.0594 144° Southeast  Level FlightAware Approximate
Sun 01:29:00 AM 10.0827 -71.9788 144° Southeast  Level FlightAware Approximate
Sun 01:30:00 AM 9.9753 -71.8983 144° Southeast  Level FlightAware Approximate
Sun 01:31:00 AM 9.8678 -71.8179 144° Southeast  Level FlightAware Approximate
Sun 01:32:00 AM 9.7603 -71.7375 144° Southeast  Level FlightAware Approximate
Sun 01:33:00 AM 9.6529 -71.6571 144° Southeast  Level FlightAware Approximate
Sun 01:34:00 AM 9.5453 -71.5768 144° Southeast  Level FlightAware Approximate
Sun 01:35:00 AM 9.4378 -71.4966 144° Southeast  Level FlightAware Approximate
Sun 01:36:00 AM 9.3303 -71.4164 144° Southeast  Level FlightAware Approximate
Sun 01:37:00 AM 9.2227 -71.3363 144° Southeast  Level FlightAware Approximate
Sun 01:38:00 AM 9.1151 -71.2562 144° Southeast  Level FlightAware Approximate
Sun 01:39:00 AM 9.0075 -71.1761 144° Southeast  Level FlightAware Approximate
Sun 01:40:00 AM 8.8999 -71.0961 144° Southeast  Level FlightAware Approximate
Sun 01:41:00 AM 8.7922 -71.0162 144° Southeast  Level FlightAware Approximate
Sun 01:42:00 AM 8.6846 -70.9363 144° Southeast  Level FlightAware Approximate
Sun 01:43:00 AM 8.5769 -70.8564 144° Southeast  Level FlightAware Approximate
Sun 01:44:00 AM 8.4692 -70.7766 144° Southeast  Level FlightAware Approximate
Sun 01:45:00 AM 8.3613 -70.6972 144° Southeast  Level FlightAware Approximate
Sun 01:46:00 AM 8.2533 -70.6179 144° Southeast  Level FlightAware Approximate
Sun 01:47:00 AM 8.1458 -70.5391 144° Southeast  Level FlightAware Approximate
Sun 01:48:00 AM 8.0383 -70.4604 144° Southeast  Level FlightAware Approximate
Sun 01:49:00 AM 7.9308 -70.3816 144° Southeast  Level FlightAware Approximate
Sun 01:50:00 AM 7.8232 -70.3030 144° Southeast  Level FlightAware Approximate
Sun 01:51:00 AM 7.7157 -70.2243 144° Southeast  Level FlightAware Approximate
Sun 01:52:00 AM 7.6081 -70.1458 144° Southeast  Level FlightAware Approximate
Sun 01:53:00 AM 7.5005 -70.0672 144° Southeast  Level FlightAware Approximate
Sun 01:54:00 AM 7.3929 -69.9887 144° Southeast  Level FlightAware Approximate
Sun 01:55:00 AM 7.2853 -69.9102 144° Southeast  Level FlightAware Approximate
Sun 01:56:00 AM 7.1777 -69.8318 144° Southeast  Level FlightAware Approximate
Sun 01:57:00 AM 7.0701 -69.7534 144° Southeast  Level FlightAware Approximate
Sun 01:58:00 AM 6.9624 -69.6750 144° Southeast  Level FlightAware Approximate
Sun 01:59:00 AM 6.8548 -69.5967 144° Southeast  Level FlightAware Approximate
Sun 02:00:00 AM 6.7471 -69.5184 144° Southeast  Level FlightAware Approximate
Sun 02:01:00 AM 6.6394 -69.4401 144° Southeast  Level FlightAware Approximate
Sun 02:02:00 AM 6.5317 -69.3619 144° Southeast  Level FlightAware Approximate
Sun 02:03:00 AM 6.4240 -69.2837 144° Southeast  Level FlightAware Approximate
Sun 02:04:00 AM 6.3163 -69.2056 144° Southeast  Level FlightAware Approximate
Sun 02:05:00 AM 6.2087 -69.1275 144° Southeast  Level FlightAware Approximate
Sun 02:06:00 AM 6.1015 -69.0492 144° Southeast  Level FlightAware Approximate
Sun 02:07:00 AM 5.9942 -68.9708 144° Southeast  Level FlightAware Approximate
Sun 02:08:00 AM 5.8869 -68.8925 144° Southeast  Level FlightAware Approximate
Sun 02:09:00 AM 5.7796 -68.8143 144° Southeast  Level FlightAware Approximate
Sun 02:10:00 AM 5.6723 -68.7360 144° Southeast  Level FlightAware Approximate
Sun 02:11:00 AM 5.5650 -68.6578 144° Southeast  Level FlightAware Approximate
Sun 02:12:00 AM 5.4577 -68.5797 144° Southeast  Level FlightAware Approximate
Sun 02:13:00 AM 5.3503 -68.5015 144° Southeast  Level FlightAware Approximate
Sun 02:14:00 AM 5.2430 -68.4234 144° Southeast  Level FlightAware Approximate
Sun 02:15:00 AM 5.1356 -68.3453 144° Southeast  Level FlightAware Approximate
Sun 02:16:00 AM 5.0283 -68.2672 144° Southeast  Level FlightAware Approximate
Sun 02:17:00 AM 4.9209 -68.1891 144° Southeast  Level FlightAware Approximate
Sun 02:18:00 AM 4.8135 -68.1111 144° Southeast  Level FlightAware Approximate
Sun 02:19:00 AM 4.7061 -68.0331 144° Southeast  Level FlightAware Approximate
Sun 02:20:00 AM 4.5987 -67.9552 144° Southeast  Level FlightAware Approximate
Sun 02:21:00 AM 4.4913 -67.8772 144° Southeast  Level FlightAware Approximate
Sun 02:22:00 AM 4.3839 -67.7993 144° Southeast  Level FlightAware Approximate
Sun 02:23:00 AM 4.2764 -67.7214 144° Southeast  Level FlightAware Approximate
Sun 02:24:00 AM 4.1690 -67.6435 144° Southeast  Level FlightAware Approximate
Sun 02:25:00 AM 4.0616 -67.5656 144° Southeast  Level FlightAware Approximate
Sun 02:26:00 AM 3.9541 -67.4878 144° Southeast  Level FlightAware Approximate
Sun 02:27:00 AM 3.8467 -67.4100 144° Southeast  Level FlightAware Approximate
Sun 02:28:00 AM 3.7392 -67.3322 144° Southeast  Level FlightAware Approximate
Sun 02:29:00 AM 3.6317 -67.2544 144° Southeast  Level FlightAware Approximate
Sun 02:30:00 AM 3.5243 -67.1766 144° Southeast  Level FlightAware Approximate
Sun 02:31:00 AM 3.4168 -67.0989 144° Southeast  Level FlightAware Approximate
Sun 02:32:00 AM 3.3093 -67.0211 144° Southeast  Level FlightAware Approximate
Sun 02:33:00 AM 3.2018 -66.9434 144° Southeast  Level FlightAware Approximate
Sun 02:34:00 AM 3.0943 -66.8657 144° Southeast  Level FlightAware Approximate
Sun 02:35:00 AM 2.9868 -66.7881 144° Southeast  Level FlightAware Approximate
Sun 02:36:00 AM 2.8793 -66.7104 144° Southeast  Level FlightAware Approximate
Sun 02:37:00 AM 2.7717 -66.6328 144° Southeast  Level FlightAware Approximate
Sun 02:38:00 AM 2.6642 -66.5551 144° Southeast  Level FlightAware Approximate
Sun 02:39:00 AM 2.5567 -66.4775 144° Southeast  Level FlightAware Approximate
Sun 02:40:00 AM 2.4492 -66.3999 144° Southeast  Level FlightAware Approximate
Sun 02:41:00 AM 2.3414 -66.3222 144° Southeast  Level FlightAware Approximate
Sun 02:42:00 AM 2.2337 -66.2444 144° Southeast  Level FlightAware Approximate
Sun 02:43:00 AM 2.1260 -66.1667 144° Southeast  Level FlightAware Approximate
Sun 02:44:00 AM 2.0182 -66.0890 144° Southeast  Level FlightAware Approximate
Sun 02:45:00 AM 1.9105 -66.0113 144° Southeast  Level FlightAware Approximate
Sun 02:46:00 AM 1.8027 -65.9336 144° Southeast  Level FlightAware Approximate
Sun 02:47:00 AM 1.6950 -65.8560 144° Southeast  Level FlightAware Approximate
Sun 02:48:00 AM 1.5872 -65.7783 144° Southeast  Level FlightAware Approximate
Sun 02:49:00 AM 1.4795 -65.7007 144° Southeast  Level FlightAware Approximate
Sun 02:50:00 AM 1.3717 -65.6230 144° Southeast  Level FlightAware Approximate
Sun 02:51:00 AM 1.2639 -65.5454 144° Southeast  Level FlightAware Approximate
Sun 02:52:00 AM 1.1562 -65.4678 144° Southeast  Level FlightAware Approximate
Sun 02:53:00 AM 1.0484 -65.3901 144° Southeast  Level FlightAware Approximate
Sun 02:54:00 AM 0.9406 -65.3125 144° Southeast  Level FlightAware Approximate
Sun 02:55:00 AM 0.8329 -65.2349 144° Southeast  Level FlightAware Approximate
Sun 02:56:00 AM 0.7251 -65.1573 144° Southeast  Level FlightAware Approximate
Sun 02:57:00 AM 0.6173 -65.0797 144° Southeast  Level FlightAware Approximate
Sun 02:58:00 AM 0.5096 -65.0021 144° Southeast  Level FlightAware Approximate
Sun 02:59:00 AM 0.4018 -64.9245 144° Southeast  Level FlightAware Approximate
Sun 03:00:00 AM 0.2940 -64.8468 144° Southeast  Level FlightAware Approximate
Sun 03:01:00 AM 0.1862 -64.7692 144° Southeast  Level FlightAware Approximate
Sun 03:02:00 AM 0.0785 -64.6917 144° Southeast  Level FlightAware Approximate
Sun 03:03:00 AM -0.0293 -64.6141 144° Southeast  Level FlightAware Approximate
Sun 03:04:00 AM -0.1371 -64.5365 144° Southeast  Level FlightAware Approximate
Sun 03:05:00 AM -0.2449 -64.4588 144° Southeast  Level FlightAware Approximate
Sun 03:06:00 AM -0.3527 -64.3812 144° Southeast  Level FlightAware Approximate
Sun 03:07:00 AM -0.4604 -64.3036 144° Southeast  Level FlightAware Approximate
Sun 03:08:00 AM -0.5682 -64.2261 144° Southeast  Level FlightAware Approximate
Sun 03:09:00 AM -0.6760 -64.1484 144° Southeast  Level FlightAware Approximate
Sun 03:10:00 AM -0.7838 -64.0708 144° Southeast  Level FlightAware Approximate
Sun 03:11:00 AM -0.8915 -63.9932 144° Southeast  Level FlightAware Approximate
Sun 03:12:00 AM -0.9993 -63.9156 144° Southeast  Level FlightAware Approximate
Sun 03:13:00 AM -1.1071 -63.8380 144° Southeast  Level FlightAware Approximate
Sun 03:14:00 AM -1.2148 -63.7603 144° Southeast  Level FlightAware Approximate
Sun 03:15:00 AM -1.3226 -63.6827 144° Southeast  Level FlightAware Approximate
Sun 03:16:00 AM -1.4304 -63.6051 144° Southeast  Level FlightAware Approximate
Sun 03:17:00 AM -1.5381 -63.5274 144° Southeast  Level FlightAware Approximate
Sun 03:18:00 AM -1.6459 -63.4497 144° Southeast  Level FlightAware Approximate
Sun 03:19:00 AM -1.7536 -63.3721 144° Southeast  Level FlightAware Approximate
Sun 03:20:00 AM -1.8614 -63.2944 144° Southeast  Level FlightAware Approximate
Sun 03:21:00 AM -1.9691 -63.2167 144° Southeast  Level FlightAware Approximate
Sun 03:22:00 AM -2.0769 -63.1390 144° Southeast  Level FlightAware Approximate
Sun 03:23:00 AM -2.1846 -63.0613 144° Southeast  Level FlightAware Approximate
Sun 03:24:00 AM -2.2923 -62.9836 144° Southeast  Level FlightAware Approximate
Sun 03:25:00 AM -2.4001 -62.9058 144° Southeast  Level FlightAware Approximate
Sun 03:26:00 AM -2.5078 -62.8281 144° Southeast  Level FlightAware Approximate
Sun 03:27:00 AM -2.6155 -62.7504 144° Southeast  Level FlightAware Approximate
Sun 03:28:00 AM -2.7232 -62.6726 144° Southeast  Level FlightAware Approximate
Sun 03:29:00 AM -2.8310 -62.5948 144° Southeast  Level FlightAware Approximate
Sun 03:30:00 AM -2.9387 -62.5170 144° Southeast  Level FlightAware Approximate
Sun 03:31:00 AM -3.0464 -62.4392 144° Southeast  Level FlightAware Approximate
Sun 03:32:00 AM -3.1541 -62.3614 144° Southeast  Level FlightAware Approximate
Sun 03:33:00 AM -3.2617 -62.2835 144° Southeast  Level FlightAware Approximate
Sun 03:34:00 AM -3.3694 -62.2057 144° Southeast  Level FlightAware Approximate
Sun 03:35:00 AM -3.4771 -62.1278 144° Southeast  Level FlightAware Approximate
Sun 03:36:00 AM -3.5848 -62.0499 144° Southeast  Level FlightAware Approximate
Sun 03:37:00 AM -3.6924 -61.9720 144° Southeast  Level FlightAware Approximate
Sun 03:38:00 AM -3.8001 -61.8941 144° Southeast  Level FlightAware Approximate
Sun 03:39:00 AM -3.9077 -61.8161 144° Southeast  Level FlightAware Approximate
Sun 03:40:00 AM -4.0154 -61.7381 144° Southeast  Level FlightAware Approximate
Sun 03:41:00 AM -4.1230 -61.6601 144° Southeast  Level FlightAware Approximate
Sun 03:42:00 AM -4.2307 -61.5821 144° Southeast  Level FlightAware Approximate
Sun 03:43:00 AM -4.3383 -61.5041 144° Southeast  Level FlightAware Approximate
Sun 03:44:00 AM -4.4459 -61.4260 144° Southeast  Level FlightAware Approximate
Sun 03:45:00 AM -4.5535 -61.3480 144° Southeast  Level FlightAware Approximate
Sun 03:46:00 AM -4.6611 -61.2699 144° Southeast  Level FlightAware Approximate
Sun 03:47:00 AM -4.7687 -61.1917 144° Southeast  Level FlightAware Approximate
Sun 03:48:00 AM -4.8763 -61.1136 144° Southeast  Level FlightAware Approximate
Sun 03:49:00 AM -4.9838 -61.0354 144° Southeast  Level FlightAware Approximate
Sun 03:50:00 AM -5.0914 -60.9572 144° Southeast  Level FlightAware Approximate
Sun 03:51:00 AM -5.1989 -60.8790 144° Southeast  Level FlightAware Approximate
Sun 03:52:00 AM -5.3065 -60.8007 144° Southeast  Level FlightAware Approximate
Sun 03:53:00 AM -5.4140 -60.7225 144° Southeast  Level FlightAware Approximate
Sun 03:54:00 AM -5.5215 -60.6441 144° Southeast  Level FlightAware Approximate
Sun 03:55:00 AM -5.6290 -60.5658 144° Southeast  Level FlightAware Approximate
Sun 03:56:00 AM -5.7365 -60.4874 144° Southeast  Level FlightAware Approximate
Sun 03:57:00 AM -5.8440 -60.4090 144° Southeast  Level FlightAware Approximate
Sun 03:58:00 AM -5.9515 -60.3306 144° Southeast  Level FlightAware Approximate
Sun 03:59:00 AM -6.0590 -60.2521 144° Southeast  Level FlightAware Approximate
Sun 04:00:00 AM -6.1664 -60.1736 144° Southeast  Level FlightAware Approximate
Sun 04:01:00 AM -6.2739 -60.0951 144° Southeast  Level FlightAware Approximate
Sun 04:02:00 AM -6.3813 -60.0166 144° Southeast  Level FlightAware Approximate
Sun 04:03:00 AM -6.4887 -59.9380 144° Southeast  Level FlightAware Approximate
Sun 04:04:00 AM -6.5961 -59.8594 144° Southeast  Level FlightAware Approximate
Sun 04:05:00 AM -6.7035 -59.7807 144° Southeast  Level FlightAware Approximate
Sun 04:06:00 AM -6.8109 -59.7020 144° Southeast  Level FlightAware Approximate
Sun 04:07:00 AM -6.9183 -59.6233 144° Southeast  Level FlightAware Approximate
Sun 04:08:00 AM -7.0257 -59.5446 144° Southeast  Level FlightAware Approximate
Sun 04:09:00 AM -7.1330 -59.4658 144° Southeast  Level FlightAware Approximate
Sun 04:10:00 AM -7.2403 -59.3869 144° Southeast  Level FlightAware Approximate
Sun 04:11:00 AM -7.3477 -59.3080 144° Southeast  Level FlightAware Approximate
Sun 04:12:00 AM -7.4549 -59.2291 144° Southeast  Level FlightAware Approximate
Sun 04:13:00 AM -7.5622 -59.1502 144° Southeast  Level FlightAware Approximate
Sun 04:14:00 AM -7.6695 -59.0712 144° Southeast  Level FlightAware Approximate
Sun 04:15:00 AM -7.7768 -58.9922 144° Southeast  Level FlightAware Approximate
Sun 04:16:00 AM -7.8840 -58.9131 144° Southeast  Level FlightAware Approximate
Sun 04:17:00 AM -7.9913 -58.8340 144° Southeast  Level FlightAware Approximate
Sun 04:18:00 AM -8.0985 -58.7548 144° Southeast  Level FlightAware Approximate
Sun 04:19:00 AM -8.2057 -58.6757 144° Southeast  Level FlightAware Approximate
Sun 04:20:00 AM -8.3129 -58.5964 144° Southeast  Level FlightAware Approximate
Sun 04:21:00 AM -8.4200 -58.5171 144° Southeast  Level FlightAware Approximate
Sun 04:22:00 AM -8.5272 -58.4378 144° Southeast  Level FlightAware Approximate
Sun 04:23:00 AM -8.6343 -58.3585 144° Southeast  Level FlightAware Approximate
Sun 04:24:00 AM -8.7415 -58.2790 144° Southeast  Level FlightAware Approximate
Sun 04:25:00 AM -8.8486 -58.1996 144° Southeast  Level FlightAware Approximate
Sun 04:26:00 AM -8.9557 -58.1201 144° Southeast  Level FlightAware Approximate
Sun 04:27:00 AM -9.0627 -58.0405 144° Southeast  Level FlightAware Approximate
Sun 04:28:00 AM -9.1698 -57.9609 144° Southeast  Level FlightAware Approximate
Sun 04:29:00 AM -9.2768 -57.8813 144° Southeast  Level FlightAware Approximate
Sun 04:30:00 AM -9.3839 -57.8016 144° Southeast  Level FlightAware Approximate
Sun 04:31:00 AM -9.4909 -57.7219 144° Southeast  Level FlightAware Approximate
Sun 04:32:00 AM -9.5978 -57.6421 144° Southeast  Level FlightAware Approximate
Sun 04:33:00 AM -9.7048 -57.5622 144° Southeast  Level FlightAware Approximate
Sun 04:34:00 AM -9.8118 -57.4823 144° Southeast  Level FlightAware Approximate
Sun 04:35:00 AM -9.9187 -57.4024 144° Southeast  Level FlightAware Approximate
Sun 04:36:00 AM -10.0256 -57.3224 144° Southeast  Level FlightAware Approximate
Sun 04:37:00 AM -10.1325 -57.2423 144° Southeast  Level FlightAware Approximate
Sun 04:38:00 AM -10.2394 -57.1622 144° Southeast  Level FlightAware Approximate
Sun 04:39:00 AM -10.3462 -57.0821 144° Southeast  Level FlightAware Approximate
Sun 04:40:00 AM -10.4530 -57.0019 144° Southeast  Level FlightAware Approximate
Sun 04:41:00 AM -10.5598 -56.9216 144° Southeast  Level FlightAware Approximate
Sun 04:42:00 AM -10.6666 -56.8413 144° Southeast  Level FlightAware Approximate
Sun 04:43:00 AM -10.7734 -56.7609 144° Southeast  Level FlightAware Approximate
Sun 04:44:00 AM -10.8801 -56.6805 144° Southeast  Level FlightAware Approximate
Sun 04:45:00 AM -10.9869 -56.6000 143° Southeast  Level FlightAware Approximate
Sun 04:46:00 AM -11.0936 -56.5194 143° Southeast  Level FlightAware Approximate
Sun 04:47:00 AM -11.2003 -56.4388 143° Southeast  Level FlightAware Approximate
Sun 04:48:00 AM -11.3069 -56.3581 143° Southeast  Level FlightAware Approximate
Sun 04:49:00 AM -11.4136 -56.2774 143° Southeast  Level FlightAware Approximate
Sun 04:50:00 AM -11.5202 -56.1966 143° Southeast  Level FlightAware Approximate
Sun 04:51:00 AM -11.6268 -56.1158 143° Southeast  Level FlightAware Approximate
Sun 04:52:00 AM -11.7334 -56.0349 143° Southeast  Level FlightAware Approximate
Sun 04:53:00 AM -11.8399 -55.9539 143° Southeast  Level FlightAware Approximate
Sun 04:54:00 AM -11.9465 -55.8728 143° Southeast  Level FlightAware Approximate
Sun 04:55:00 AM -12.0530 -55.7917 143° Southeast  Level FlightAware Approximate
Sun 04:56:00 AM -12.1595 -55.7106 143° Southeast  Level FlightAware Approximate
Sun 04:57:00 AM -12.2659 -55.6293 143° Southeast  Level FlightAware Approximate
Sun 04:58:00 AM -12.3724 -55.5480 143° Southeast  Level FlightAware Approximate
Sun 04:59:00 AM -12.4788 -55.4667 143° Southeast  Level FlightAware Approximate
Sun 05:00:00 AM -12.5852 -55.3852 143° Southeast  Level FlightAware Approximate
Sun 05:01:00 AM -12.6915 -55.3037 143° Southeast  Level FlightAware Approximate
Sun 05:02:00 AM -12.7979 -55.2222 143° Southeast  Level FlightAware Approximate
Sun 05:03:00 AM -12.9042 -55.1405 143° Southeast  Level FlightAware Approximate
Sun 05:04:00 AM -13.0105 -55.0588 143° Southeast  Level FlightAware Approximate
Sun 05:05:00 AM -13.1167 -54.9770 143° Southeast  Level FlightAware Approximate
Sun 05:06:00 AM -13.2230 -54.8952 143° Southeast  Level FlightAware Approximate
Sun 05:07:00 AM -13.3292 -54.8133 143° Southeast  Level FlightAware Approximate
Sun 05:08:00 AM -13.4354 -54.7313 143° Southeast  Level FlightAware Approximate
Sun 05:09:00 AM -13.5415 -54.6492 143° Southeast  Level FlightAware Approximate
Sun 05:10:00 AM -13.6478 -54.5669 143° Southeast  Level FlightAware Approximate
Sun 05:11:00 AM -13.7541 -54.4846 143° Southeast  Level FlightAware Approximate
Sun 05:12:00 AM -13.8604 -54.4021 143° Southeast  Level FlightAware Approximate
Sun 05:13:00 AM -13.9666 -54.3196 143° Southeast  Level FlightAware Approximate
Sun 05:14:00 AM -14.0728 -54.2371 143° Southeast  Level FlightAware Approximate
Sun 05:15:00 AM -14.1790 -54.1544 143° Southeast  Level FlightAware Approximate
Sun 05:16:00 AM -14.2852 -54.0717 143° Southeast  Level FlightAware Approximate
Sun 05:17:00 AM -14.3913 -53.9888 143° Southeast  Level FlightAware Approximate
Sun 05:18:00 AM -14.4974 -53.9060 143° Southeast  Level FlightAware Approximate
Sun 05:19:00 AM -14.6034 -53.8230 143° Southeast  Level FlightAware Approximate
Sun 05:20:00 AM -14.7095 -53.7399 143° Southeast  Level FlightAware Approximate
Sun 05:21:00 AM -14.8155 -53.6568 143° Southeast  Level FlightAware Approximate
Sun 05:22:00 AM -14.9215 -53.5736 143° Southeast  Level FlightAware Approximate
Sun 05:23:00 AM -15.0274 -53.4903 143° Southeast  Level FlightAware Approximate
Sun 05:24:00 AM -15.1334 -53.4069 143° Southeast  Level FlightAware Approximate
Sun 05:25:00 AM -15.2392 -53.3234 143° Southeast  Level FlightAware Approximate
Sun 05:26:00 AM -15.3451 -53.2399 143° Southeast  Level FlightAware Approximate
Sun 05:27:00 AM -15.4509 -53.1563 143° Southeast  Level FlightAware Approximate
Sun 05:28:00 AM -15.5567 -53.0726 143° Southeast  Level FlightAware Approximate
Sun 05:29:00 AM -15.6625 -52.9888 143° Southeast  Level FlightAware Approximate
Sun 05:30:00 AM -15.7682 -52.9049 143° Southeast  Level FlightAware Approximate
Sun 05:31:00 AM -15.8739 -52.8209 143° Southeast  Level FlightAware Approximate
Sun 05:32:00 AM -15.9796 -52.7368 143° Southeast  Level FlightAware Approximate
Sun 05:33:00 AM -16.0852 -52.6526 143° Southeast  Level FlightAware Approximate
Sun 05:34:00 AM -16.1908 -52.5684 143° Southeast  Level FlightAware Approximate
Sun 05:35:00 AM -16.2964 -52.4841 143° Southeast  Level FlightAware Approximate
Sun 05:36:00 AM -16.4019 -52.3997 143° Southeast  Level FlightAware Approximate
Sun 05:37:00 AM -16.5074 -52.3151 142° Southeast  Level FlightAware Approximate
Sun 05:38:00 AM -16.6129 -52.2305 142° Southeast  Level FlightAware Approximate
Sun 05:39:00 AM -16.7183 -52.1458 142° Southeast  Level FlightAware Approximate
Sun 05:40:00 AM -16.8237 -52.0610 142° Southeast  Level FlightAware Approximate
Sun 05:41:00 AM -16.9290 -51.9761 142° Southeast  Level FlightAware Approximate
Sun 05:42:00 AM -17.0344 -51.8911 142° Southeast  Level FlightAware Approximate
Sun 05:43:00 AM -17.1397 -51.8061 142° Southeast  Level FlightAware Approximate
Sun 05:44:00 AM -17.2449 -51.7209 142° Southeast  Level FlightAware Approximate
Sun 05:45:00 AM -17.3501 -51.6356 142° Southeast  Level FlightAware Approximate
Sun 05:46:00 AM -17.4553 -51.5502 142° Southeast  Level FlightAware Approximate
Sun 05:47:00 AM -17.5605 -51.4648 142° Southeast  Level FlightAware Approximate
Sun 05:48:00 AM -17.6656 -51.3792 142° Southeast  Level FlightAware Approximate
Sun 05:49:00 AM -17.7707 -51.2935 142° Southeast  Level FlightAware Approximate
Sun 05:50:00 AM -17.8757 -51.2078 142° Southeast  Level FlightAware Approximate
Sun 05:51:00 AM -17.9807 -51.1219 142° Southeast  Level FlightAware Approximate
Sun 05:52:00 AM -18.0856 -51.0359 142° Southeast  Level FlightAware Approximate
Sun 05:53:00 AM -18.1906 -50.9498 142° Southeast  Level FlightAware Approximate
Sun 05:54:00 AM -18.2955 -50.8637 142° Southeast  Level FlightAware Approximate
Sun 05:54:07 AM -19.6850 -49.3070 142° Southeast 496 571 39,000  Level FlightAware ADS-B
Sun 05:54:47 AM -19.7570 -49.2470 142° Southeast 494 568 39,000  Level FlightAware ADS-B
Sun 05:55:32 AM -19.8450 -49.1730 142° Southeast 494 568 39,000  Level FlightAware ADS-B
Sun 05:56:12 AM -19.9160 -49.1130 142° Southeast 494 568 39,000  Level FlightAware ADS-B
Sun 05:56:52 AM -19.9900 -49.0510 142° Southeast 495 570 39,000  Level FlightAware ADS-B
Sun 05:57:32 AM -20.0620 -48.9900 141° Southeast 494 568 39,000  Level FlightAware ADS-B
Sun 05:58:12 AM -20.1330 -48.9300 142° Southeast 494 568 39,000  Level FlightAware ADS-B
Sun 05:58:52 AM -20.2050 -48.8690 142° Southeast 493 567 39,000  Level FlightAware ADS-B
Sun 05:59:42 AM -20.2970 -48.7920 142° Southeast 494 568 39,000  Level FlightAware ADS-B
Sun 06:00:22 AM -20.3690 -48.7310 142° Southeast 494 568 39,000  Level FlightAware ADS-B
Sun 06:01:02 AM -20.4370 -48.6740 142° Southeast 493 567 39,000  Level FlightAware ADS-B
Sun 06:01:42 AM -20.5010 -48.6190 141° Southeast 493 567 39,000  Level FlightAware ADS-B
Sun 06:02:27 AM -20.5920 -48.5510 145° Southeast 488 562 39,000  Level FlightAware ADS-B
Sun 06:03:07 AM -20.6690 -48.4970 147° Southeast 488 562 39,000  Level FlightAware ADS-B
Sun 06:03:57 AM -20.7590 -48.4320 146° Southeast 488 562 39,000  Level FlightAware ADS-B
Sun 06:04:37 AM -20.8340 -48.3770 146° Southeast 488 562 39,000  Level FlightAware ADS-B
Sun 06:05:17 AM -20.9090 -48.3220 146° Southeast 488 562 39,000  Level FlightAware ADS-B
Sun 06:05:57 AM -20.9850 -48.2660 145° Southeast 489 563 39,000  Level FlightAware ADS-B
Sun 06:06:37 AM -21.0530 -48.2160 146° Southeast 490 564 39,000  Level FlightAware ADS-B
Sun 06:07:32 AM -21.1550 -48.1410 146° Southeast 489 563 39,000  Level FlightAware ADS-B
Sun 06:08:17 AM -21.2480 -48.0750 147° Southeast 490 564 39,000  Level FlightAware ADS-B
Sun 06:09:02 AM -21.3370 -48.0100 146° Southeast 486 559 39,000  Level FlightAware ADS-B
Sun 06:09:42 AM -21.4120 -47.9560 146° Southeast 487 560 39,000  Level FlightAware ADS-B
Sun 06:10:27 AM -21.4990 -47.8930 146° Southeast 489 563 39,000  Level FlightAware ADS-B
Sun 06:11:07 AM -21.5750 -47.8360 145° Southeast 492 566 39,000 -568 Level FlightAware ADS-B
Sun 06:12:02 AM -21.6800 -47.7600 146° Southeast 492 566 38,100 -1,860 Descending FlightAware ADS-B
Sun 06:12:47 AM -21.7680 -47.6950 146° Southeast 507 583 35,900 -3,035 Descending FlightAware ADS-B
Sun 06:13:27 AM -21.8450 -47.6390 146° Southeast 510 587 33,800 -3,040 Descending FlightAware ADS-B
Sun 06:14:02 AM -21.9150 -47.5870 145° Southeast 513 590 32,100 -2,329 Descending FlightAware ADS-B
Sun 06:14:52 AM -22.0130 -47.5150 146° Southeast 504 580 30,500 -2,047 Descending FlightAware ADS-B
Sun 06:15:27 AM -22.0810 -47.4650 146° Southeast 489 563 29,200 -2,025 Descending FlightAware ADS-B
Sun 06:16:12 AM -22.1640 -47.4040 146° Southeast 486 559 27,800 -1,920 Descending FlightAware ADS-B
Sun 06:17:57 AM -22.3500 -47.2660 144° Southeast 467 537 24,400 -1,946 Descending FlightAware ADS-B
Sun 06:18:00 AM -22.3624 -47.2592 144° Southeast  Level Estimated
Sun 06:19:17 AM -22.4900 -47.1620 146° Southeast 454 522 21,800  Level FlightAware ADS-B
Sun 06:20:02 AM -22.5700 -47.1050 147° Southeast 445 512 20,400 -1,906 Descending FlightAware ADS-B
Sun 06:20:42 AM -22.6430 -47.0700 156° South 434 499 19,100 -1,943 Descending FlightAware ADS-B
Sun 06:21:47 AM -22.7660 -47.0180 159° South 418 481 17,000 -1,943 Descending FlightAware ADS-B
Sun 06:22:27 AM -22.8370 -46.9880 159° South 418 481 15,700 -2,025 Descending FlightAware ADS-B
Sun 06:23:07 AM -22.9100 -46.9580 159° South 413 475 14,300 -2,118 Descending FlightAware ADS-B
Sun 06:23:52 AM -22.9860 -46.9260 159° South 362 417 12,700 -2,047 Descending FlightAware ADS-B
Sun 06:24:32 AM -23.0450 -46.9010 159° South 314 361 11,400 -1,765 Descending FlightAware ADS-B
Sun 06:25:17 AM -23.1030 -46.8770 159° South 296 341 10,200 -1,371 Descending FlightAware ADS-B
Sun 06:25:42 AM -23.1340 -46.8640 159° South 279 321 9,800 -1,200 Descending FlightAware ADS-B
Sun 06:26:12 AM -23.1710 -46.8480 158° South 275 316 9,100 -1,300 Descending FlightAware ADS-B
Sun 06:26:42 AM -23.2080 -46.8320 158° South 278 320 8,500 -1,200 Descending FlightAware ADS-B
Sun 06:27:07 AM -23.2370 -46.8200 159° South 276 318 8,000 -873 Descending FlightAware ADS-B
Sun 06:27:37 AM -23.2740 -46.8040 158° South 263 303 7,700 -545 Descending FlightAware ADS-B
Sun 06:28:02 AM -23.3010 -46.7930 159° South 240 276 7,500 -450 Descending FlightAware ADS-B
Sun 06:28:17 AM -23.3170 -46.7860 158° South 229 264 7,400 -400 Descending FlightAware ADS-B
Sun 06:28:47 AM -23.3460 -46.7740 159° South 213 245 7,200 -545 Descending FlightAware ADS-B
Sun 06:29:12 AM -23.3700 -46.7630 157° South 224 258 6,900 -873 Descending FlightAware ADS-B
Sun 06:29:42 AM -23.3950 -46.7420 142° Southeast 221 254 6,400 -900 Descending FlightAware ADS-B
Sun 06:30:12 AM -23.4190 -46.7200 140° Southeast 218 251 6,000 -873 Descending FlightAware ADS-B
Sun 06:30:37 AM -23.4360 -46.7030 137° Southeast 210 242 5,600 -873 Descending FlightAware ADS-B
Sun 06:31:07 AM -23.4540 -46.6790 129° Southeast 197 227 5,200 -764 Descending FlightAware ADS-B
Sun 06:31:32 AM -23.4640 -46.6550 114° Southeast 197 227 4,900 -655 Descending FlightAware ADS-B
Sun 06:32:02 AM -23.4740 -46.6290 113° Southeast 187 215 4,600 -436 Descending FlightAware ADS-B
Sun 06:32:27 AM -23.4710 -46.6060 82° East 167 192 4,500 -655 Descending FlightAware ADS-B
Sun 06:32:57 AM -23.4640 -46.5810 73° East 164 189 4,000 -900 Descending FlightAware ADS-B
Sun 06:33:27 AM -23.4580 -46.5590 73° East 154 177 3,600 -800 Descending FlightAware ADS-B
Sun 06:33:42 AM -23.4550 -46.5470 75° East 152 175 3,400 -750 Descending FlightAware ADS-B
Sun 06:34:07 AM -23.4500 -46.5290 73° East 149 171 3,100 -750 Descending FlightAware ADS-B
Sun 06:34:22 AM -23.4470 -46.5180 73° East 149 171 2,900 -800 Descending FlightAware ADS-B
Sun 06:34:52 AM -23.4410 -46.4950 74° East 149 171 2,500 -750 Descending FlightAware ADS-B
Sun 06:35:02 AM -23.4390 -46.4880 73° East 149 171 2,400 -600 Descending FlightAware ADS-B

Login

Don't have an account? Register now (free) for customized features, flight alerts, and more!